Time;durP1;ratioP1;P1;durP2;ratioP2;P2;SDS_P1;SDS_P2;PMS_P1;PMS_P2;Temp;Humidity;BMP_temperature;BMP_pressure;BME280_temperature;BME280_humidity;BME280_pressure;Samples;Min_cycle;Max_cycle;Signal;HPM_P1;HPM_P2
2021/01/03 00:00:26;;;;;;;10.38;6.38;;;;;;;5.62;67.91;100072.03;4976269;28;20485;-58
2021/01/03 00:02:53;;;;;;;10.98;6.45;;;;;;;5.52;68.31;100084.63;4976404;28;20018;-66
2021/01/03 00:05:22;;;;;;;11.35;6.53;;;;;;;5.53;68.70;100083.47;4975623;28;20026;-57
2021/01/03 00:07:48;;;;;;;11.70;7.22;;;;;;;5.53;68.31;100074.28;4971096;28;20027;-58
2021/01/03 00:10:14;;;;;;;12.80;7.43;;;;;;;5.51;68.50;100082.22;4965971;28;20026;-67
2021/01/03 00:12:40;;;;;;;11.65;6.45;;;;;;;5.47;68.78;100084.13;4973616;28;20434;-66
2021/01/03 00:15:11;;;;;;;14.32;7.03;;;;;;;5.45;68.79;100075.34;4976314;28;20038;-67
2021/01/03 00:17:38;;;;;;;13.82;6.75;;;;;;;5.43;68.77;100078.50;4976415;28;20445;-67
2021/01/03 00:20:07;;;;;;;11.80;6.22;;;;;;;5.38;68.76;100086.41;4975956;28;20308;-66
2021/01/03 00:22:32;;;;;;;14.85;6.50;;;;;;;5.34;68.80;100086.34;4976389;28;20018;-67
2021/01/03 00:24:58;;;;;;;12.25;6.72;;;;;;;5.32;68.94;100097.06;4976431;28;20362;-67
2021/01/03 00:27:23;;;;;;;11.60;6.28;;;;;;;5.33;69.08;100095.09;4975801;28;20403;-68
2021/01/03 00:29:49;;;;;;;10.35;6.70;;;;;;;5.31;68.66;100087.09;4976245;28;20110;-66
2021/01/03 00:32:14;;;;;;;12.43;6.43;;;;;;;5.28;69.19;100091.44;4980002;28;20019;-67
2021/01/03 00:34:39;;;;;;;12.63;7.22;;;;;;;5.26;69.39;100099.38;4980114;28;20042;-67
2021/01/03 00:37:05;;;;;;;13.50;6.00;;;;;;;5.27;69.36;100100.97;4979844;28;20030;-66
2021/01/03 00:39:30;;;;;;;13.02;5.78;;;;;;;5.29;68.89;100089.47;4980053;28;20469;-67
2021/01/03 00:41:55;;;;;;;9.48;5.90;;;;;;;5.29;69.05;100089.47;4980076;28;20054;-67
2021/01/03 00:44:21;;;;;;;14.73;6.72;;;;;;;5.26;69.02;100079.88;4979433;28;20019;-67
2021/01/03 00:46:46;;;;;;;10.85;6.80;;;;;;;5.21;69.35;100084.97;4976189;28;20434;-67
2021/01/03 00:49:11;;;;;;;13.05;6.65;;;;;;;5.16;69.44;100088.03;4979753;28;20327;-67
2021/01/03 00:51:37;;;;;;;13.82;7.18;;;;;;;5.12;69.62;100085.19;4979602;28;20427;-67
2021/01/03 00:54:03;;;;;;;12.48;7.10;;;;;;;5.12;69.47;100084.41;4979783;28;20335;-67
2021/01/03 00:56:28;;;;;;;17.02;7.90;;;;;;;5.07;69.41;100079.94;4978728;28;20026;-67
2021/01/03 00:58:54;;;;;;;11.98;7.30;;;;;;;4.99;69.59;100077.44;4979632;28;20026;-67
2021/01/03 01:01:20;;;;;;;13.23;7.18;;;;;;;4.92;69.66;100075.31;4979500;28;20029;-67
2021/01/03 01:03:46;;;;;;;10.52;6.13;;;;;;;4.88;69.83;100074.44;4979881;28;20081;-66
2021/01/03 01:06:12;;;;;;;11.30;7.28;;;;;;;4.81;70.23;100079.91;4979495;28;20027;-67
2021/01/03 01:08:37;;;;;;;13.50;7.50;;;;;;;4.79;70.02;100082.25;4976331;28;20018;-67
2021/01/03 01:11:06;;;;;;;13.10;6.80;;;;;;;4.78;70.62;100087.03;4974695;28;20031;-67
2021/01/03 01:13:32;;;;;;;11.18;6.82;;;;;;;4.76;70.66;100088.56;4976134;28;20081;-67
2021/01/03 01:15:58;;;;;;;13.27;7.03;;;;;;;4.75;70.31;100087.75;4979648;28;20085;-67
2021/01/03 01:18:23;;;;;;;12.75;6.50;;;;;;;4.73;70.39;100083.75;4979271;28;20034;-67
2021/01/03 01:20:49;;;;;;;13.60;7.03;;;;;;;4.79;69.94;100087.81;4978511;28;20019;-67
2021/01/03 01:23:14;;;;;;;13.48;6.72;;;;;;;4.71;70.61;100081.34;4979114;28;20027;-67
2021/01/03 01:25:39;;;;;;;11.00;6.38;;;;;;;4.71;70.39;100081.34;4979267;28;20030;-67
2021/01/03 01:28:05;;;;;;;10.60;6.18;;;;;;;4.69;70.60;100082.88;4979341;28;20078;-67
2021/01/03 01:30:33;;;;;;;9.63;6.40;;;;;;;4.75;70.18;100079.41;4979059;28;20066;-68
2021/01/03 01:32:59;;;;;;;11.13;6.88;;;;;;;4.72;70.05;100082.13;4979336;28;20093;-67
2021/01/03 01:35:28;;;;;;;13.95;7.28;;;;;;;4.64;70.60;100072.84;4977884;28;20334;-67
2021/01/03 01:37:54;;;;;;;11.40;6.95;;;;;;;4.57;70.54;100076.31;4978920;28;20031;-68
2021/01/03 01:40:22;;;;;;;15.13;7.55;;;;;;;4.53;71.01;100075.44;4979168;28;20022;-67
2021/01/03 01:42:48;;;;;;;11.90;6.60;;;;;;;4.52;71.38;100071.03;4977865;28;20022;-68
2021/01/03 01:45:16;;;;;;;12.55;7.80;;;;;;;4.53;71.54;100069.88;4978868;28;20106;-67
2021/01/03 01:47:46;;;;;;;13.57;7.45;;;;;;;4.52;71.30;100068.25;4978809;28;20027;-67
2021/01/03 01:50:17;;;;;;;11.93;6.97;;;;;;;4.51;71.62;100065.84;4978793;28;20039;-67
2021/01/03 01:52:52;;;;;;;12.45;7.05;;;;;;;4.49;71.42;100045.94;4978727;28;20038;-67
2021/01/03 01:55:25;;;;;;;11.98;6.85;;;;;;;4.47;71.03;100049.09;4978761;28;20034;-67
2021/01/03 01:58:07;;;;;;;13.18;7.35;;;;;;;4.47;71.21;100043.53;4978504;28;20027;-67
2021/01/03 02:00:35;;;;;;;13.32;7.50;;;;;;;4.43;71.24;100039.06;4978832;28;20019;-67
2021/01/03 02:03:18;;;;;;;11.43;6.85;;;;;;;4.39;71.66;100052.13;4977539;28;20412;-67
2021/01/03 02:05:55;;;;;;;13.02;6.57;;;;;;;4.38;71.61;100045.72;4978744;28;20023;-67
2021/01/03 02:08:42;;;;;;;13.82;7.72;;;;;;;4.41;71.72;100041.44;4978156;28;20041;-67
2021/01/03 02:11:13;;;;;;;10.50;6.20;;;;;;;4.37;71.58;100049.69;4978274;28;20266;-66
2021/01/03 02:13:43;;;;;;;10.88;7.03;;;;;;;4.40;71.49;100060.09;4978211;28;20026;-67
2021/01/03 02:16:12;;;;;;;12.75;6.93;;;;;;;4.40;71.47;100060.09;4978429;28;20031;-67
2021/01/03 02:18:39;;;;;;;14.30;6.63;;;;;;;4.41;71.64;100056.13;4978378;28;20035;-67
2021/01/03 02:21:12;;;;;;;10.65;6.55;;;;;;;4.45;70.74;100051.44;4978448;28;20303;-68
2021/01/03 02:23:46;;;;;;;12.88;7.38;;;;;;;4.41;71.47;100045.00;4978526;28;20026;-67
2021/01/03 02:26:13;;;;;;;11.50;6.85;;;;;;;4.35;71.70;100047.25;4978025;28;20030;-67
2021/01/03 02:28:43;;;;;;;12.82;7.68;;;;;;;4.31;71.84;100040.03;4978014;28;20378;-67
2021/01/03 02:31:11;;;;;;;12.43;7.05;;;;;;;4.34;71.89;100051.22;4978110;28;20027;-66
2021/01/03 02:33:41;;;;;;;14.30;7.30;;;;;;;4.35;72.15;100043.69;4978144;28;20038;-67
2021/01/03 02:36:14;;;;;;;12.10;7.20;;;;;;;4.33;72.19;100046.03;4978043;28;20022;-67
2021/01/03 02:38:56;;;;;;;10.73;7.13;;;;;;;4.31;72.23;100056.72;4978346;28;20033;-67
2021/01/03 02:41:22;;;;;;;;;;;;;;;4.30;72.60;100055.13;4978210;28;20031;-66
2021/01/03 02:43:48;;;;;;;12.35;6.88;;;;;;;4.28;72.54;100060.25;4978033;28;19910;-66
2021/01/03 02:46:13;;;;;;;12.40;6.95;;;;;;;4.26;73.10;100057.84;4977394;28;20038;-66
2021/01/03 02:48:38;;;;;;;10.73;6.13;;;;;;;4.28;73.02;100052.69;4977995;28;20027;-66
2021/01/03 02:51:04;;;;;;;12.60;6.72;;;;;;;4.34;72.30;100053.19;4977491;28;20042;-66
2021/01/03 02:53:29;;;;;;;14.25;7.40;;;;;;;4.34;72.54;100045.66;4977691;28;20061;-65
2021/01/03 02:55:54;;;;;;;14.50;6.85;;;;;;;4.33;72.71;100049.63;4977653;28;20330;-66
2021/01/03 02:58:20;;;;;;;13.02;7.45;;;;;;;4.35;72.71;100043.69;4977776;28;20407;-66
2021/01/03 03:00:45;;;;;;;16.08;7.57;;;;;;;4.44;72.32;100037.91;4977744;28;20478;-64
2021/01/03 03:03:10;;;;;;;13.70;7.00;;;;;;;4.46;72.66;100030.78;4977238;28;20479;-66
2021/01/03 03:05:37;;;;;;;12.23;7.05;;;;;;;4.48;72.87;100028.44;4977511;28;20033;-66
2021/01/03 03:08:03;;;;;;;13.48;7.07;;;;;;;4.50;73.06;100022.50;4977504;28;20042;-66
2021/01/03 03:10:30;;;;;;;12.95;7.47;;;;;;;4.53;73.45;100014.19;4976804;28;20410;-66
2021/01/03 03:12:58;;;;;;;13.98;7.20;;;;;;;4.51;73.72;100018.53;4977483;28;20037;-66
2021/01/03 03:15:26;;;;;;;11.82;7.53;;;;;;;4.44;74.15;100005.31;4977183;28;20018;-66
2021/01/03 03:17:52;;;;;;;10.38;6.90;;;;;;;4.37;74.42;100007.13;4977612;28;20026;-66
2021/01/03 03:20:20;;;;;;;18.08;7.60;;;;;;;4.41;74.49;99994.91;4977360;28;20426;-67
2021/01/03 03:22:46;;;;;;;14.07;7.50;;;;;;;4.43;74.84;99988.97;4977215;28;20318;-63
2021/01/03 03:25:12;;;;;;;15.85;7.70;;;;;;;4.44;74.94;99982.25;4976661;28;20035;-66
2021/01/03 03:27:37;;;;;;;15.98;7.30;;;;;;;4.48;74.90;99964.44;4977224;28;20027;-66
2021/01/03 03:30:08;;;;;;;15.93;7.43;;;;;;;4.54;75.00;99943.44;4977289;28;20031;-66
2021/01/03 03:32:33;;;;;;;11.40;6.80;;;;;;;4.68;74.56;99914.25;4976822;28;20023;-66
2021/01/03 03:34:59;;;;;;;12.80;6.72;;;;;;;4.63;74.74;99945.97;4977080;28;20026;-66
2021/01/03 03:37:24;;;;;;;13.40;7.80;;;;;;;4.57;74.44;99976.09;4976521;28;20026;-66
2021/01/03 03:39:50;;;;;;;13.50;7.25;;;;;;;4.54;74.62;99974.06;4975002;28;20019;-66
2021/01/03 03:42:15;;;;;;;12.98;7.05;;;;;;;4.59;75.19;99947.88;4975715;28;20031;-64
2021/01/03 03:44:42;;;;;;;12.07;7.00;;;;;;;4.61;75.94;99931.63;4976854;28;20022;-66
2021/01/03 03:47:07;;;;;;;16.10;9.80;;;;;;;4.56;75.77;99948.63;4976741;28;20354;-66
2021/01/03 03:49:34;;;;;;;15.55;8.68;;;;;;;4.50;75.87;99962.06;4976793;28;20077;-67
2021/01/03 03:52:03;;;;;;;14.68;8.05;;;;;;;4.43;76.13;99964.75;4976274;28;20047;-67
2021/01/03 03:54:28;;;;;;;12.60;7.57;;;;;;;4.39;75.76;99963.88;4976773;28;20031;-67
2021/01/03 03:57:03;;;;;;;12.85;7.68;;;;;;;4.37;76.32;99949.50;4976601;28;20050;-67
2021/01/03 03:59:29;;;;;;;12.77;7.55;;;;;;;4.38;76.94;99962.25;4963386;28;20023;-67
2021/01/03 04:01:56;;;;;;;22.05;8.30;;;;;;;4.35;76.70;99990.81;4976835;28;20033;-67
2021/01/03 04:04:23;;;;;;;13.40;7.80;;;;;;;4.35;76.69;99993.59;4976221;28;20055;-67
2021/01/03 04:06:49;;;;;;;17.88;8.05;;;;;;;4.36;76.95;99986.84;4976182;28;20027;-66
2021/01/03 04:09:15;;;;;;;14.18;8.32;;;;;;;4.37;76.99;99985.69;4975372;28;20027;-67
2021/01/03 04:11:45;;;;;;;16.50;8.13;;;;;;;4.38;76.57;99995.63;4975534;28;20019;-67
2021/01/03 04:14:14;;;;;;;12.80;8.40;;;;;;;4.37;77.23;99999.59;4976134;28;20117;-68
2021/01/03 04:16:51;;;;;;;10.95;7.38;;;;;;;4.38;77.38;99990.06;4976672;28;20057;-67
2021/01/03 04:19:18;;;;;;;12.00;7.10;;;;;;;4.38;77.39;99992.84;4976365;28;20418;-67
2021/01/03 04:21:50;;;;;;;14.88;7.85;;;;;;;4.36;77.30;99992.41;4976505;28;20029;-67
2021/01/03 04:24:15;;;;;;;10.82;7.35;;;;;;;4.39;77.49;99985.34;4976363;28;20431;-67
2021/01/03 04:26:40;;;;;;;13.13;7.72;;;;;;;4.40;77.36;99993.31;4975320;28;20106;-67
2021/01/03 04:29:06;;;;;;;17.33;8.77;;;;;;;4.42;77.22;99982.63;4976490;28;20054;-66
2021/01/03 04:31:31;;;;;;;43.47;20.08;;;;;;;4.43;77.23;99981.44;4975350;28;20019;-67
2021/01/03 04:33:56;;;;;;;46.00;23.05;;;;;;;4.42;77.23;99982.63;4976493;28;20415;-67
2021/01/03 04:36:22;;;;;;;44.55;23.52;;;;;;;4.43;77.16;99981.44;4976031;28;20128;-66
2021/01/03 04:38:47;;;;;;;20.67;13.65;;;;;;;4.46;77.65;99979.88;4976296;28;20377;-66
2021/01/03 04:41:31;;;;;;;26.05;13.77;;;;;;;4.44;77.51;99977.47;4976332;28;20701;-66
2021/01/03 04:44:02;;;;;;;18.55;9.82;;;;;;;4.43;77.35;99975.88;4976429;28;20403;-66
2021/01/03 04:46:34;;;;;;;15.07;7.85;;;;;;;4.45;77.47;99975.50;4976305;28;20334;-65
2021/01/03 04:49:03;;;;;;;12.35;7.78;;;;;;;4.40;77.38;99973.84;4976276;28;20101;-66
2021/01/03 04:51:37;;;;;;;14.60;7.95;;;;;;;4.41;77.28;99967.09;4975617;28;20079;-66
2021/01/03 04:54:13;;;;;;;15.75;7.97;;;;;;;4.44;77.65;99983.03;4976213;28;20366;-66
2021/01/03 04:56:41;;;;;;;14.88;7.93;;;;;;;4.40;76.97;99981.38;4976402;28;20037;-67
2021/01/03 04:59:47;;;;;;;14.70;9.50;;;;;;;4.40;77.51;99986.94;4976043;28;20031;-67
2021/01/03 05:02:29;;;;;;;13.20;7.90;;;;;;;4.43;77.69;99989.78;4975893;28;20019;-68
2021/01/03 05:05:13;;;;;;;19.77;9.90;;;;;;;4.41;77.86;99997.69;4976089;28;20026;-68
2021/01/03 05:07:42;;;;;;;17.08;9.98;;;;;;;4.38;78.15;99983.69;4975959;28;20074;-68
2021/01/03 05:10:25;;;;;;;15.98;9.02;;;;;;;4.36;78.16;99995.19;4975223;28;20462;-67
2021/01/03 05:13:09;;;;;;;14.73;9.40;;;;;;;4.34;78.42;99987.22;4976485;28;20082;-67
2021/01/03 05:15:35;;;;;;;15.00;8.88;;;;;;;4.32;78.17;99999.91;4974986;28;20018;-67
2021/01/03 05:18:04;;;;;;;16.00;9.30;;;;;;;4.31;78.49;99989.94;4977903;28;20027;-67
2021/01/03 05:20:29;;;;;;;16.83;10.23;;;;;;;4.30;78.85;99982.78;4979110;28;20029;-67
2021/01/03 05:23:12;;;;;;;16.98;8.90;;;;;;;4.30;78.78;99996.69;4979356;28;20414;-67
2021/01/03 05:25:40;;;;;;;15.32;9.27;;;;;;;4.31;79.18;99998.28;4978454;28;20030;-67
2021/01/03 05:28:12;;;;;;;19.05;10.48;;;;;;;4.35;78.85;99999.16;4979501;28;20030;-67
2021/01/03 05:30:37;;;;;;;18.60;9.10;;;;;;;4.34;79.42;99990.00;4979205;28;20403;-67
2021/01/03 05:33:13;;;;;;;16.80;9.77;;;;;;;4.34;79.64;99989.22;4979152;28;20030;-67
2021/01/03 05:35:44;;;;;;;19.30;10.48;;;;;;;4.38;79.71;99989.25;4978876;28;20314;-67
2021/01/03 05:38:11;;;;;;;19.37;10.37;;;;;;;4.36;79.48;100006.34;4978993;28;20106;-68
2021/01/03 05:40:40;;;;;;;19.55;9.90;;;;;;;4.34;79.97;100011.47;4979198;28;20023;-67
2021/01/03 05:43:13;;;;;;;15.77;10.20;;;;;;;4.32;80.10;100014.63;4977776;28;20037;-66
2021/01/03 05:45:54;;;;;;;20.75;12.23;;;;;;;4.32;79.91;100014.63;4979140;28;20026;-67
2021/01/03 05:48:23;;;;;;;19.00;10.93;;;;;;;4.35;80.36;100007.50;4978387;28;20351;-67
2021/01/03 05:50:49;;;;;;;21.10;11.73;;;;;;;4.39;80.00;100011.19;4978492;28;20045;-67
2021/01/03 05:53:17;;;;;;;23.95;13.35;;;;;;;4.40;79.91;100012.00;4978884;28;20026;-67
2021/01/03 05:55:59;;;;;;;20.13;11.50;;;;;;;4.38;80.40;100012.31;4978650;28;20022;-67
2021/01/03 05:58:40;;;;;;;20.83;10.70;;;;;;;4.38;80.39;100017.09;4978872;28;20026;-66
2021/01/03 06:01:22;;;;;;;17.23;10.05;;;;;;;4.33;80.43;100015.44;4967069;28;20433;-66
2021/01/03 06:04:11;;;;;;;18.13;10.77;;;;;;;4.34;80.08;100006.72;4978352;28;20034;-67
2021/01/03 06:06:59;;;;;;;21.88;10.50;;;;;;;4.34;80.16;100005.91;4978545;28;20027;-66
2021/01/03 06:09:34;;;;;;;22.42;11.63;;;;;;;4.35;80.01;100007.50;4978419;28;20026;-67
2021/01/03 06:12:23;;;;;;;18.77;10.82;;;;;;;4.34;80.64;100005.91;4978895;28;20027;-67
2021/01/03 06:14:53;;;;;;;21.85;11.32;;;;;;;4.33;80.59;100010.66;4978380;28;20082;-66
2021/01/03 06:17:43;;;;;;;23.02;11.65;;;;;;;4.31;80.87;100007.44;4978269;28;20109;-67
2021/01/03 06:20:16;;;;;;;23.10;12.15;;;;;;;4.28;81.28;100007.38;4978267;28;20547;-67
2021/01/03 06:23:22;;;;;;;19.95;12.18;;;;;;;4.29;81.33;100011.78;4978555;28;20023;-67
2021/01/03 06:25:57;;;;;;;21.92;11.60;;;;;;;4.27;81.80;100011.34;4967160;28;20046;-66
2021/01/03 06:28:22;;;;;;;21.52;11.27;;;;;;;4.25;81.71;100005.34;4977636;28;20085;-66
2021/01/03 06:31:24;;;;;;;23.35;12.63;;;;;;;4.21;81.92;100008.06;4978085;28;20019;-67
2021/01/03 06:33:58;;;;;;;28.02;14.73;;;;;;;4.25;82.74;100019.25;4978094;28;20035;-67
2021/01/03 06:36:40;;;;;;;27.35;14.30;;;;;;;4.29;83.12;100006.22;4977723;28;20101;-67
2021/01/03 06:39:10;;;;;;;;;;;;;;;4.28;83.20;100012.94;4978400;28;20633;-65
2021/01/03 06:41:41;;;;;;;24.05;14.25;;;;;;;4.30;83.56;100011.41;4978237;28;19914;-66
2021/01/03 06:44:44;;;;;;;24.52;14.35;;;;;;;4.32;84.13;100009.06;4977878;28;20162;-66
2021/01/03 06:47:40;;;;;;;24.55;14.80;;;;;;;4.34;84.37;100015.06;4977605;28;20030;-67
2021/01/03 06:50:33;;;;;;;33.10;16.13;;;;;;;4.47;84.43;100026.03;4977340;28;20130;-65
2021/01/03 06:53:17;;;;;;;26.02;14.15;;;;;;;4.49;84.57;100001.41;4976819;28;20030;-66
2021/01/03 06:56:06;;;;;;;29.08;15.38;;;;;;;4.58;84.70;100010.31;4977427;28;20038;-66
2021/01/03 06:58:38;;;;;;;24.35;14.88;;;;;;;4.59;84.86;100011.91;4977525;28;20023;-66
2021/01/03 07:01:18;;;;;;;41.22;16.60;;;;;;;4.64;85.25;100006.81;4977407;28;20362;-67
2021/01/03 07:03:49;;;;;;;30.95;16.33;;;;;;;4.70;85.36;100015.69;4977536;28;20035;-67
2021/01/03 07:06:15;;;;;;;23.55;15.05;;;;;;;4.76;85.29;100010.63;4974069;28;20039;-67
2021/01/03 07:08:51;;;;;;;32.42;16.38;;;;;;;4.77;85.45;100024.16;4977258;28;20037;-67
2021/01/03 07:11:43;;;;;;;30.83;15.93;;;;;;;4.84;85.01;100023.47;4977302;28;20027;-55
2021/01/03 07:14:29;;;;;;;27.27;15.50;;;;;;;4.85;84.91;100022.28;4974794;28;20018;-66
2021/01/03 07:16:59;;;;;;;29.90;16.45;;;;;;;4.97;85.43;100025.69;4976759;28;20027;-67
2021/01/03 07:19:27;;;;;;;33.42;16.20;;;;;;;4.95;85.20;100028.03;4977109;28;20045;-66
2021/01/03 07:21:58;;;;;;;32.22;15.57;;;;;;;4.99;85.12;100027.28;4977121;28;20030;-67
2021/01/03 07:24:35;;;;;;;29.35;15.80;;;;;;;5.07;85.39;100043.75;4977067;28;20026;-64
2021/01/03 07:27:21;;;;;;;32.83;15.75;;;;;;;5.18;84.93;100030.75;4977039;28;20027;-67
2021/01/03 07:29:55;;;;;;;28.52;14.75;;;;;;;5.20;85.32;100034.00;4966543;28;20045;-67
2021/01/03 07:32:22;;;;;;;32.28;16.17;;;;;;;5.24;85.55;100043.22;4977137;28;20042;-67
2021/01/03 07:34:52;;;;;;;33.85;17.33;;;;;;;5.42;84.80;100034.28;4972105;28;20045;-63
2021/01/03 07:37:24;;;;;;;30.98;16.60;;;;;;;5.40;84.83;100029.09;4976943;28;20105;-67
2021/01/03 07:40:01;;;;;;;25.33;16.00;;;;;;;5.46;84.93;100040.72;4976121;28;20069;-63
2021/01/03 07:42:27;;;;;;;34.55;17.30;;;;;;;5.48;84.57;100046.75;4972241;28;20030;-64
2021/01/03 07:44:55;;;;;;;30.83;16.50;;;;;;;5.49;85.05;100051.16;4976631;28;20145;-62
2021/01/03 07:47:43;;;;;;;30.10;17.23;;;;;;;5.55;84.79;100053.22;4976516;28;20050;-65
2021/01/03 07:50:18;;;;;;;33.40;17.55;;;;;;;5.54;85.13;100048.03;4976365;28;20315;-67
2021/01/03 07:52:52;;;;;;;31.45;16.42;;;;;;;5.55;85.10;100053.22;4976744;28;20130;-66
2021/01/03 07:55:25;;;;;;;34.03;18.58;;;;;;;5.58;85.01;100058.03;4976706;28;20365;-66
2021/01/03 07:58:09;;;;;;;34.78;18.15;;;;;;;5.62;85.55;100060.88;4976753;28;20324;-67
2021/01/03 08:00:37;;;;;;;38.10;18.50;;;;;;;5.62;85.33;100051.72;4976367;28;20022;-67
2021/01/03 08:03:14;;;;;;;37.53;17.95;;;;;;;5.65;85.24;100051.75;4976650;28;20015;-67
2021/01/03 08:05:41;;;;;;;31.05;16.55;;;;;;;5.68;85.22;100052.97;4975454;28;20026;-66
2021/01/03 08:08:12;;;;;;;31.75;16.92;;;;;;;5.71;85.15;100058.59;4976733;28;20158;-66
2021/01/03 08:10:38;;;;;;;28.67;16.80;;;;;;;5.75;85.53;100062.25;4975276;28;20077;-67
2021/01/03 08:13:30;;;;;;;28.55;14.75;;;;;;;5.88;84.84;100060.03;4971827;28;20365;-67
2021/01/03 08:15:58;;;;;;;30.38;15.55;;;;;;;5.99;84.89;100060.19;4976133;28;20034;-66
2021/01/03 08:18:24;;;;;;;29.48;14.93;;;;;;;5.99;85.15;100047.03;4972671;28;20097;-66
2021/01/03 08:20:50;;;;;;;27.20;14.43;;;;;;;6.06;85.01;100049.94;4965046;28;20019;-68
2021/01/03 08:23:25;;;;;;;26.98;15.00;;;;;;;6.08;85.10;100047.56;4975182;28;20392;-67
2021/01/03 08:26:13;;;;;;;25.02;14.70;;;;;;;6.15;84.63;100046.84;4976352;28;20156;-64
2021/01/03 08:28:55;;;;;;;27.92;14.40;;;;;;;6.20;84.21;100049.28;4972542;28;20074;-66
2021/01/03 08:31:20;;;;;;;27.73;15.55;;;;;;;6.20;84.61;100041.72;4970748;28;20027;-64
2021/01/03 08:33:49;;;;;;;23.30;14.55;;;;;;;6.24;84.54;100057.69;4976081;28;20031;-61
2021/01/03 08:36:30;;;;;;;25.23;13.77;;;;;;;6.28;84.91;100050.94;4976112;28;20031;-66
2021/01/03 08:39:03;;;;;;;27.55;13.55;;;;;;;6.29;84.91;100054.53;4976164;28;20105;-61
2021/01/03 08:41:34;;;;;;;24.27;13.63;;;;;;;6.39;84.98;100057.47;4976158;28;20023;-63
2021/01/03 08:44:02;;;;;;;32.53;17.20;;;;;;;6.41;85.11;100060.69;4976080;28;20022;-60
2021/01/03 08:46:30;;;;;;;26.75;15.75;;;;;;;6.43;84.83;100052.72;4976048;28;20085;-60
2021/01/03 08:49:10;;;;;;;20.85;14.15;;;;;;;6.51;84.54;100059.97;4976236;28;20029;-64
2021/01/03 08:51:36;;;;;;;25.35;12.88;;;;;;;6.58;84.27;100059.28;4977002;28;20057;-60
2021/01/03 08:54:05;;;;;;;21.60;13.18;;;;;;;6.61;84.30;100057.69;4979816;28;20023;-66
2021/01/03 08:56:51;;;;;;;24.92;12.93;;;;;;;6.65;84.10;100078.06;4979689;28;20461;-60
2021/01/03 08:59:18;;;;;;;29.83;14.32;;;;;;;6.71;83.56;100080.13;4977525;28;20045;-64
2021/01/03 09:01:44;;;;;;;23.73;13.85;;;;;;;6.72;83.39;100080.94;4979955;28;20030;-64
2021/01/03 09:04:19;;;;;;;27.63;14.27;;;;;;;6.77;83.86;100078.59;4979283;28;20077;-64
2021/01/03 09:06:51;;;;;;;23.95;13.48;;;;;;;6.79;84.11;100081.00;4979792;28;20034;-64
2021/01/03 09:09:18;;;;;;;;;;;;;;;6.79;84.03;100081.00;4979795;28;20038;-65
2021/01/03 09:12:11;;;;;;;23.98;12.93;;;;;;;6.83;83.83;100073.44;4976893;28;20273;-66
2021/01/03 09:14:46;;;;;;;24.33;13.35;;;;;;;6.88;83.77;100083.50;4977569;28;20159;-67
2021/01/03 09:17:21;;;;;;;28.77;14.52;;;;;;;6.89;83.57;100080.31;4978770;28;20034;-66
2021/01/03 09:20:04;;;;;;;25.80;14.10;;;;;;;6.92;83.86;100062.78;4979319;28;20022;-66
2021/01/03 09:22:33;;;;;;;26.23;13.63;;;;;;;7.01;83.97;100070.81;4972236;28;20469;-64
2021/01/03 09:25:07;;;;;;;30.95;14.57;;;;;;;7.11;83.07;100056.13;4963861;28;20038;-60
2021/01/03 09:27:34;;;;;;;23.58;13.82;;;;;;;7.14;83.40;100058.16;4964210;28;20026;-63
2021/01/03 09:30:31;;;;;;;22.35;13.13;;;;;;;7.23;82.67;100050.25;4962386;28;20086;-62
2021/01/03 09:33:13;;;;;;;21.20;12.98;;;;;;;7.28;82.96;100057.47;4958898;28;20054;-63
2021/01/03 09:36:15;;;;;;;25.02;13.68;;;;;;;7.34;82.69;100058.69;4970365;28;20037;-62
2021/01/03 09:38:40;;;;;;;;;;;;;;;7.39;82.59;100064.72;4976857;28;20027;-66
2021/01/03 09:41:21;;;;;;;20.57;12.13;;;;;;;7.43;82.71;100059.16;4978491;28;20020;-66
2021/01/03 09:44:13;;;;;;;24.35;11.45;;;;;;;7.53;82.06;100058.44;4978980;28;20018;-57
2021/01/03 09:47:00;;;;;;;21.20;11.82;;;;;;;7.61;81.81;100043.28;4943773;28;20038;-62
2021/01/03 09:49:39;;;;;;;18.17;11.10;;;;;;;7.69;82.71;100060.94;4978626;28;20117;-61
2021/01/03 09:52:29;;;;;;;19.15;10.45;;;;;;;7.78;81.64;100046.56;4977373;28;20058;-63
2021/01/03 09:55:03;;;;;;;19.80;11.45;;;;;;;7.84;81.91;100036.59;4978728;28;20022;-63
2021/01/03 09:57:44;;;;;;;20.85;11.80;;;;;;;7.86;81.62;100039.81;4975424;28;20322;-60
2021/01/03 11:32:19;;;;;;;76.72;28.00;;;;;;;8.83;78.41;100008.88;5126126;27;20357;-63
2021/01/03 11:34:45;;;;;;;25.25;11.43;;;;;;;8.89;77.52;99993.25;5125199;28;20813;-62
2021/01/03 11:37:14;;;;;;;13.32;7.60;;;;;;;8.95;77.69;99997.25;5126603;28;20030;-64
2021/01/03 11:39:40;;;;;;;16.63;10.65;;;;;;;9.06;77.65;99999.28;5124550;28;20019;-63
2021/01/03 11:42:12;;;;;;;16.98;8.85;;;;;;;9.18;77.37;99996.03;5129394;27;20072;-62
2021/01/03 11:44:40;;;;;;;31.48;14.38;;;;;;;9.43;76.66;99998.78;5121732;27;20024;-63
2021/01/03 11:47:09;;;;;;;55.75;24.13;;;;;;;9.63;75.18;99996.34;5127716;27;20027;-62
2021/01/03 11:49:35;;;;;;;21.98;12.25;;;;;;;9.71;74.36;99983.88;5121336;27;20024;-63
2021/01/03 11:52:02;;;;;;;16.15;10.63;;;;;;;9.83;74.53;99983.41;5126961;27;20318;-65
2021/01/03 11:54:28;;;;;;;12.18;7.88;;;;;;;10.00;73.59;99987.38;5123279;27;20024;-64
2021/01/03 11:56:54;;;;;;;11.18;7.05;;;;;;;10.15;73.89;99991.72;5129016;28;20372;-60
2021/01/03 11:59:20;;;;;;;12.52;6.78;;;;;;;10.17;72.27;99981.66;5126502;27;20076;-65
2021/01/03 12:01:45;;;;;;;10.85;6.15;;;;;;;10.19;71.84;99987.66;5129465;27;20028;-60
2021/01/03 12:04:11;;;;;;;10.05;6.82;;;;;;;10.11;71.96;99997.31;5130469;27;20310;-64
2021/01/03 12:06:36;;;;;;;12.20;6.50;;;;;;;10.00;72.29;99988.16;5132954;27;20054;-64
2021/01/03 12:09:02;;;;;;;14.23;7.05;;;;;;;9.95;72.74;99984.97;5133211;27;20079;-59
2021/01/03 12:11:27;;;;;;;12.52;6.90;;;;;;;9.92;72.45;99997.84;5132916;27;20051;-60
2021/01/03 12:13:59;;;;;;;11.15;6.82;;;;;;;9.90;72.33;99994.63;5133074;28;20073;-64
2021/01/03 12:16:30;;;;;;;12.65;6.80;;;;;;;9.85;73.38;100000.66;5133133;27;20031;-60
2021/01/03 12:18:56;;;;;;;13.38;7.03;;;;;;;9.84;73.37;99985.00;5121620;27;20031;-58
2021/01/03 12:21:28;;;;;;;11.90;7.00;;;;;;;9.82;73.24;99990.25;5124339;28;20026;-60
2021/01/03 12:23:54;;;;;;;11.77;6.97;;;;;;;9.83;73.42;99987.03;5117514;27;20353;-62
2021/01/03 12:26:20;;;;;;;9.48;6.35;;;;;;;9.93;73.03;99988.22;5127364;27;20023;-64
2021/01/03 12:28:46;;;;;;;14.18;8.15;;;;;;;10.04;73.25;99983.31;5132218;27;20037;-61
2021/01/03 12:31:12;;;;;;;13.32;7.32;;;;;;;10.18;72.78;99976.84;5129918;27;20040;-62
2021/01/03 12:33:38;;;;;;;18.45;9.93;;;;;;;10.34;72.80;99968.72;5118502;28;20031;-61
2021/01/03 12:36:04;;;;;;;12.50;8.13;;;;;;;10.51;72.05;99962.19;5118420;28;20016;-63
2021/01/03 12:38:29;;;;;;;11.30;7.07;;;;;;;10.63;71.41;99966.50;5118836;28;20035;-61
2021/01/03 12:40:55;;;;;;;17.10;9.82;;;;;;;10.74;71.42;99972.88;5119218;28;20023;-61
2021/01/03 12:43:20;;;;;;;14.55;7.55;;;;;;;10.82;70.75;99982.03;5118782;28;20295;-61
2021/01/03 12:45:46;;;;;;;11.65;6.50;;;;;;;10.90;70.68;99985.56;5116755;28;20033;-63
2021/01/03 12:48:11;;;;;;;11.15;6.75;;;;;;;10.94;70.35;99987.13;5104920;28;20024;-62
2021/01/03 12:50:36;;;;;;;9.20;6.78;;;;;;;10.95;69.41;99985.13;5103619;28;20032;-63
2021/01/03 12:53:02;;;;;;;10.38;7.20;;;;;;;10.91;69.96;99979.53;5108273;28;20015;-62
2021/01/03 12:55:27;;;;;;;19.08;9.10;;;;;;;10.87;69.88;99980.78;5110520;27;20034;-63
2021/01/03 12:57:52;;;;;;;12.35;7.55;;;;;;;10.83;70.45;99978.00;5104122;27;20352;-62
2021/01/03 13:00:18;;;;;;;11.82;7.15;;;;;;;10.83;70.26;99969.56;5102963;28;20102;-63
2021/01/03 13:02:43;;;;;;;15.15;8.15;;;;;;;10.82;70.16;99959.53;5103993;27;20020;-62
2021/01/03 13:05:09;;;;;;;19.27;11.40;;;;;;;10.77;70.37;99969.22;5103982;28;20035;-63
2021/01/03 13:07:35;;;;;;;23.20;11.40;;;;;;;10.78;70.57;99964.41;5107397;28;20024;-63
2021/01/03 13:10:00;;;;;;;18.30;10.77;;;;;;;10.78;70.93;99975.66;5106011;28;20032;-62
2021/01/03 13:12:25;;;;;;;12.93;7.95;;;;;;;10.79;70.03;99982.88;5112692;27;20331;-63
2021/01/03 13:14:51;;;;;;;14.13;7.80;;;;;;;10.77;69.98;99974.06;5101508;28;20326;-62